Time;durP1;ratioP1;P1;durP2;ratioP2;P2;SDS_P1;SDS_P2;PMS_P1;PMS_P2;Temp;Humidity;BMP_temperature;BMP_pressure;BME280_temperature;BME280_humidity;BME280_pressure;Samples;Min_cycle;Max_cycle;Signal;HPM_P1;HPM_P2
2022/03/23 00:00:54;;;;;;;11.98;5.53;;;;;;;2.34;58.92;101256.88;5097696;28;20508;-66
2022/03/23 00:03:23;;;;;;;13.63;5.88;;;;;;;2.43;57.98;101249.84;5097675;28;20047;-67
2022/03/23 00:05:53;;;;;;;13.15;4.90;;;;;;;2.51;58.43;101258.72;5097941;28;20028;-66
2022/03/23 00:08:27;;;;;;;10.43;5.05;;;;;;;2.56;58.44;101262.38;5097576;28;20097;-67
2022/03/23 00:10:57;;;;;;;12.75;5.70;;;;;;;2.54;58.54;101263.91;5097842;28;20039;-65
2022/03/23 00:13:28;;;;;;;12.15;6.50;;;;;;;2.52;58.24;101255.38;5097486;28;20051;-67
2022/03/23 00:15:58;;;;;;;13.25;5.75;;;;;;;2.47;57.77;101254.25;5097735;28;20068;-66
2022/03/23 00:18:27;;;;;;;13.68;5.93;;;;;;;2.45;57.94;101255.81;5097660;28;20402;-67
2022/03/23 00:20:57;;;;;;;11.38;5.47;;;;;;;2.33;57.97;101252.59;5097328;28;20048;-67
2022/03/23 00:23:26;;;;;;;13.07;6.20;;;;;;;2.21;58.87;101256.09;5097091;28;20568;-66
2022/03/23 00:25:55;;;;;;;15.52;5.78;;;;;;;2.16;59.21;101252.44;5097481;28;20135;-66
2022/03/23 00:28:24;;;;;;;10.67;6.00;;;;;;;2.06;59.01;101257.72;5097195;28;20044;-66
2022/03/23 00:30:56;;;;;;;12.50;6.00;;;;;;;1.97;59.21;101250.47;5097125;28;20078;-67
2022/03/23 00:33:32;;;;;;;14.00;5.78;;;;;;;2.22;58.63;101243.59;5097491;28;20062;-67
2022/03/23 00:36:02;;;;;;;10.73;4.90;;;;;;;2.23;58.22;101252.84;5097226;28;20494;-66
2022/03/23 00:38:31;;;;;;;11.98;5.55;;;;;;;2.11;58.55;101247.16;5097278;28;20139;-66
2022/03/23 00:41:00;;;;;;;13.87;5.63;;;;;;;2.10;59.28;101242.88;5096983;28;20044;-66
2022/03/23 00:43:29;;;;;;;11.53;5.47;;;;;;;2.06;58.95;101238.44;5097177;28;20550;-67
2022/03/23 00:46:00;;;;;;;11.67;5.30;;;;;;;2.10;59.42;101237.84;5096841;28;20068;-66
2022/03/23 00:48:30;;;;;;;11.63;5.07;;;;;;;1.75;59.01;101172.00;5095647;28;20054;-66
2022/03/23 00:50:59;;;;;;;10.32;4.90;;;;;;;2.21;58.44;101231.75;5096892;28;20482;-66
2022/03/23 00:53:28;;;;;;;10.57;5.43;;;;;;;2.14;58.56;101219.59;5096977;28;20062;-66
2022/03/23 00:55:58;;;;;;;13.48;5.07;;;;;;;2.24;58.58;101228.53;5096874;28;20462;-66
2022/03/23 00:58:28;;;;;;;11.38;5.03;;;;;;;2.29;58.83;101229.69;5096989;28;20512;-66
2022/03/23 01:00:59;;;;;;;12.05;5.55;;;;;;;2.23;58.41;101230.19;5096951;28;20056;-67
2022/03/23 01:03:30;;;;;;;16.90;6.10;;;;;;;2.27;57.95;101226.22;5096561;28;20052;-66
2022/03/23 01:06:03;;;;;;;12.07;5.20;;;;;;;2.09;58.61;101228.53;5096397;28;20048;-67
2022/03/23 01:08:35;;;;;;;10.82;5.03;;;;;;;2.04;58.60;101228.28;5095660;28;20075;-66
2022/03/23 01:11:05;;;;;;;10.85;4.38;;;;;;;2.10;58.81;101225.25;5096673;28;20501;-67
2022/03/23 01:13:36;;;;;;;11.82;4.70;;;;;;;2.16;58.38;101224.75;5096934;28;20094;-66
2022/03/23 01:16:07;;;;;;;10.00;5.35;;;;;;;2.24;59.01;101221.88;5094998;28;20032;-67
2022/03/23 01:18:36;;;;;;;8.40;4.78;;;;;;;2.24;58.08;101216.81;5096281;28;20048;-67
2022/03/23 01:21:05;;;;;;;10.02;4.47;;;;;;;2.15;58.98;101217.97;5096504;28;20048;-67
2022/03/23 01:23:34;;;;;;;9.18;4.05;;;;;;;2.17;59.04;101218.91;5096142;28;20043;-66
2022/03/23 01:26:04;;;;;;;6.20;3.22;;;;;;;2.21;58.04;101216.66;5096025;28;20048;-67
2022/03/23 01:28:33;;;;;;;8.95;3.90;;;;;;;2.24;58.39;101211.78;5094688;28;20076;-68
2022/03/23 01:31:02;;;;;;;10.50;4.47;;;;;;;2.22;58.28;101202.41;5096151;28;20048;-67
2022/03/23 01:33:34;;;;;;;11.88;4.20;;;;;;;2.20;58.64;101204.84;5094808;28;20040;-66
2022/03/23 01:36:03;;;;;;;9.70;4.40;;;;;;;1.96;58.98;101191.75;5095854;28;20051;-66
2022/03/23 01:38:32;;;;;;;11.25;4.57;;;;;;;1.88;59.62;101203.00;5095887;28;20051;-67
2022/03/23 01:41:01;;;;;;;12.18;5.00;;;;;;;1.77;59.70;101201.53;5095855;28;20096;-67
2022/03/23 01:43:33;;;;;;;8.73;4.33;;;;;;;1.85;59.24;101196.91;5096042;28;20070;-66
2022/03/23 01:46:03;;;;;;;12.07;4.50;;;;;;;1.90;59.72;101198.03;5095751;28;20036;-67
2022/03/23 01:48:34;;;;;;;10.48;3.92;;;;;;;1.91;59.30;101195.63;5094644;28;20036;-66
2022/03/23 01:51:03;;;;;;;9.55;3.80;;;;;;;1.75;59.47;101207.25;5095662;28;20413;-66
2022/03/23 01:53:32;;;;;;;12.80;4.53;;;;;;;1.53;60.55;101204.22;5096213;28;20040;-66
2022/03/23 01:56:01;;;;;;;8.83;4.00;;;;;;;1.34;60.59;101213.16;5095383;28;20291;-67
2022/03/23 01:58:30;;;;;;;9.37;4.00;;;;;;;1.45;60.85;101211.31;5094561;28;20040;-67
2022/03/23 02:01:00;;;;;;;12.82;5.03;;;;;;;1.37;60.79;101221.72;5095709;28;20119;-66
2022/03/23 02:03:30;;;;;;;13.70;6.68;;;;;;;1.32;61.60;101218.88;5095731;28;20139;-66
2022/03/23 02:06:00;;;;;;;14.23;6.70;;;;;;;1.42;61.21;101217.81;5094120;28;20134;-66
2022/03/23 02:08:32;;;;;;;14.35;6.53;;;;;;;0.88;61.79;101193.56;5094083;28;20055;-67
2022/03/23 02:11:01;;;;;;;;;;;;;;;0.98;61.68;101218.50;5094503;28;20044;-66
2022/03/23 02:13:36;;;;;;;13.15;5.72;;;;;;;0.88;61.66;101218.69;5094839;28;19924;-67
2022/03/23 02:16:06;;;;;;;14.03;6.73;;;;;;;0.43;62.77;101215.81;5095388;28;20036;-67
2022/03/23 02:18:35;;;;;;;11.15;5.55;;;;;;;0.44;62.96;101199.94;5094189;28;20047;-67
2022/03/23 02:21:05;;;;;;;10.88;5.32;;;;;;;0.37;63.38;101217.91;5093645;28;20032;-68
2022/03/23 02:23:37;;;;;;;9.70;5.05;;;;;;;0.34;63.89;101225.22;5093818;28;20048;-67
2022/03/23 02:26:07;;;;;;;9.05;4.82;;;;;;;0.42;63.88;101224.09;5095279;28;20058;-67
2022/03/23 02:28:36;;;;;;;;;;;;;;;0.40;63.49;101221.50;5095578;28;20129;-67
2022/03/23 02:31:07;;;;;;;13.43;4.78;;;;;;;0.44;63.70;101233.47;5094861;28;19927;-67
2022/03/23 02:33:37;;;;;;;9.15;3.90;;;;;;;0.47;63.76;101227.78;5095071;28;20070;-66
2022/03/23 02:36:06;;;;;;;9.23;3.70;;;;;;;0.37;64.48;101238.00;5094666;28;20055;-67
2022/03/23 02:38:37;;;;;;;9.48;4.60;;;;;;;0.46;64.15;101231.03;5094889;28;20047;-67
2022/03/23 02:41:06;;;;;;;8.35;4.18;;;;;;;0.44;63.91;101235.09;5095022;28;20056;-67
2022/03/23 02:43:35;;;;;;;12.63;5.32;;;;;;;0.41;64.39;101237.41;5094648;28;20052;-67
2022/03/23 02:46:05;;;;;;;13.20;5.72;;;;;;;0.41;64.38;101234.91;5094559;28;20051;-67
2022/03/23 02:48:34;;;;;;;15.00;6.15;;;;;;;0.29;64.51;101237.50;5094758;28;20055;-67
2022/03/23 02:51:07;;;;;;;16.65;5.07;;;;;;;0.24;64.83;101232.97;5094858;28;20122;-66
2022/03/23 03:01:53;;;;;;;13.80;6.70;;;;;;;0.31;64.79;101225.06;5093472;28;20098;-67
2022/03/23 03:04:23;;;;;;;16.55;6.90;;;;;;;0.46;64.82;101236.94;5094320;28;20093;-68
2022/03/23 03:06:52;;;;;;;16.95;6.88;;;;;;;0.47;64.29;101233.69;5094485;28;20048;-68
2022/03/23 03:09:23;;;;;;;19.27;6.75;;;;;;;0.50;64.44;101233.00;5094118;28;20039;-67
2022/03/23 03:11:52;;;;;;;18.48;6.53;;;;;;;0.39;64.03;101233.94;5094442;28;20054;-66
2022/03/23 03:14:21;;;;;;;12.85;6.68;;;;;;;0.20;64.47;101220.97;5094393;28;20072;-68
2022/03/23 03:16:49;;;;;;;13.38;5.22;;;;;;;0.31;64.59;101220.03;5093996;28;20036;-68
2022/03/23 03:19:20;;;;;;;10.80;5.40;;;;;;;0.16;64.91;101229.06;5093930;28;20101;-67
2022/03/23 03:21:49;;;;;;;16.25;6.45;;;;;;;0.26;64.98;101229.78;5093977;28;20055;-67
2022/03/23 03:24:20;;;;;;;14.47;6.70;;;;;;;0.26;65.19;101231.41;5094198;28;20486;-68
2022/03/23 03:26:51;;;;;;;12.35;5.22;;;;;;;0.52;64.65;101228.94;5094496;28;20382;-68
2022/03/23 03:29:20;;;;;;;15.35;5.45;;;;;;;0.36;64.82;101231.25;5093682;28;20082;-67
2022/03/23 03:31:49;;;;;;;12.02;5.38;;;;;;;0.38;64.57;101233.09;5093198;28;20478;-68
2022/03/23 03:34:19;;;;;;;11.90;4.87;;;;;;;0.25;64.78;101229.66;5094318;28;20043;-68
2022/03/23 03:36:48;;;;;;;9.55;4.03;;;;;;;0.26;64.85;101229.78;5093690;28;20307;-68
2022/03/23 03:39:17;;;;;;;12.30;4.00;;;;;;;0.37;64.77;101230.47;5093653;28;20047;-67
2022/03/23 03:41:46;;;;;;;11.63;4.03;;;;;;;0.18;64.99;101227.53;5093853;28;20670;-68
2022/03/23 03:44:16;;;;;;;10.05;3.47;;;;;;;0.28;65.06;101233.25;5093981;28;20090;-68
2022/03/23 03:46:46;;;;;;;8.20;3.60;;;;;;;0.38;64.83;101233.09;5093764;28;20494;-68
2022/03/23 03:49:16;;;;;;;10.88;3.08;;;;;;;0.39;64.18;101234.81;5093912;28;20414;-67
2022/03/23 03:51:45;;;;;;;6.75;2.90;;;;;;;0.23;64.37;101226.19;5093512;28;20044;-67
2022/03/23 03:54:13;;;;;;;6.07;3.30;;;;;;;0.32;64.60;101231.81;5093601;28;20040;-67
2022/03/23 03:56:42;;;;;;;6.88;2.97;;;;;;;0.22;64.80;101234.47;5093519;28;20486;-67
2022/03/23 03:59:11;;;;;;;6.88;3.08;;;;;;;0.28;64.57;101239.91;5093857;28;20401;-67
2022/03/23 04:01:42;;;;;;;10.18;3.88;;;;;;;0.00;64.57;101244.78;5093424;28;20040;-68
2022/03/23 04:04:11;;;;;;;8.95;4.15;;;;;;;0.06;64.80;101240.16;5093548;28;20052;-67
2022/03/23 04:06:40;;;;;;;19.33;6.78;;;;;;;0.07;65.00;101238.53;5093740;28;20077;-68
2022/03/23 04:09:09;;;;;;;16.43;6.57;;;;;;;0.15;64.63;101233.22;5093753;28;20119;-69
2022/03/23 04:11:38;;;;;;;10.98;4.80;;;;;;;0.05;64.84;101240.06;5093349;28;20281;-68
2022/03/23 04:14:10;;;;;;;19.60;7.35;;;;;;;0.03;65.30;101236.56;5094012;28;20048;-68
2022/03/23 04:16:39;;;;;;;13.97;5.73;;;;;;;0.06;65.05;101241.78;5093365;28;20037;-68
2022/03/23 04:19:09;;;;;;;14.02;6.10;;;;;;;0.14;64.55;101228.13;5093579;28;20048;-68
2022/03/23 04:21:38;;;;;;;11.20;5.53;;;;;;;0.21;64.68;101232.75;5093997;28;20055;-68
2022/03/23 04:24:08;;;;;;;9.30;4.40;;;;;;;0.06;64.53;101234.25;5093324;28;20046;-68
2022/03/23 04:26:36;;;;;;;14.82;5.13;;;;;;;-0.02;64.96;101239.66;5093303;28;20055;-68
2022/03/23 04:29:06;;;;;;;15.10;6.05;;;;;;;-0.15;65.43;101237.13;5092951;28;20052;-68
2022/03/23 04:31:35;;;;;;;12.82;5.90;;;;;;;-0.07;65.34;101240.97;5093489;28;20048;-68
2022/03/23 04:34:04;;;;;;;16.20;7.60;;;;;;;0.03;65.43;101236.56;5093353;28;20040;-68
2022/03/23 04:36:34;;;;;;;23.98;10.05;;;;;;;0.19;65.30;101241.84;5093754;28;20048;-69
2022/03/23 04:39:04;;;;;;;36.95;13.13;;;;;;;0.15;64.81;101242.38;5093147;28;20044;-68
2022/03/23 04:41:32;;;;;;;40.38;15.45;;;;;;;0.12;65.23;101242.22;5093150;28;20048;-68
2022/03/23 04:44:01;;;;;;;27.35;10.32;;;;;;;0.11;64.81;101240.47;5096065;28;20086;-68
2022/03/23 04:46:30;;;;;;;20.17;8.88;;;;;;;0.15;64.88;101247.41;5097209;28;20040;-68
2022/03/23 04:48:59;;;;;;;14.87;5.63;;;;;;;0.23;64.90;101241.25;5097196;28;20086;-68
2022/03/23 04:51:30;;;;;;;15.50;5.90;;;;;;;0.39;64.61;101238.97;5096795;28;20688;-68
2022/03/23 04:54:02;;;;;;;11.25;5.13;;;;;;;0.47;64.23;101242.84;5096963;28;20078;-68
2022/03/23 04:56:31;;;;;;;15.05;5.80;;;;;;;0.53;64.26;101233.16;5096673;28;20075;-69
2022/03/23 04:59:00;;;;;;;10.80;4.47;;;;;;;0.33;64.03;101244.47;5096595;28;20047;-69
2022/03/23 05:01:29;;;;;;;10.50;4.15;;;;;;;0.26;64.54;101236.44;5096927;28;20083;-68
2022/03/23 05:03:59;;;;;;;10.00;4.50;;;;;;;0.40;64.38;101235.69;5096825;28;20494;-68
2022/03/23 05:06:29;;;;;;;10.52;4.00;;;;;;;0.50;64.21;101238.03;5097104;28;20617;-69
2022/03/23 05:08:58;;;;;;;9.67;4.33;;;;;;;0.51;63.99;101235.59;5096500;28;20240;-68
2022/03/23 05:11:28;;;;;;;11.23;4.40;;;;;;;0.59;64.08;101238.59;5096476;28;20045;-68
2022/03/23 05:13:58;;;;;;;17.88;5.50;;;;;;;0.66;63.89;101235.72;5096701;28;20047;-68
2022/03/23 05:16:26;;;;;;;10.27;4.60;;;;;;;0.71;64.03;101238.50;5096814;28;20394;-68
2022/03/23 05:18:55;;;;;;;16.17;6.30;;;;;;;0.74;63.80;101242.09;5096348;28;20048;-68
2022/03/23 05:21:24;;;;;;;15.30;6.20;;;;;;;0.92;63.42;101247.38;5096205;28;20291;-68
2022/03/23 05:23:53;;;;;;;15.45;7.15;;;;;;;0.91;63.41;101241.47;5095999;28;20044;-68
2022/03/23 05:26:22;;;;;;;10.63;5.80;;;;;;;0.94;63.64;101244.19;5096180;28;20551;-68
2022/03/23 05:28:53;;;;;;;13.40;6.28;;;;;;;1.11;63.53;101240.22;5096029;28;20559;-67
2022/03/23 05:31:22;;;;;;;11.82;5.40;;;;;;;1.33;63.12;101240.75;5056117;28;20554;-68
2022/03/23 05:33:51;;;;;;;10.15;4.40;;;;;;;1.50;62.90;101244.28;5055687;28;20127;-67
2022/03/23 05:36:20;;;;;;;16.33;4.30;;;;;;;1.75;62.09;101242.47;5055714;28;20045;-68
2022/03/23 05:38:49;;;;;;;10.65;4.22;;;;;;;2.00;61.67;101235.56;5055575;28;20483;-67
2022/03/23 05:41:18;;;;;;;11.82;5.38;;;;;;;2.17;60.68;101234.91;5055555;28;20107;-67
2022/03/23 05:43:47;;;;;;;12.83;6.83;;;;;;;2.39;60.15;101227.78;5055515;28;20041;-67
2022/03/23 05:46:18;;;;;;;8.50;4.05;;;;;;;2.68;60.33;101234.44;5055911;28;20462;-67
2022/03/23 05:48:48;;;;;;;8.98;4.10;;;;;;;2.98;59.37;101227.69;5055707;28;20053;-67
2022/03/23 05:51:16;;;;;;;8.15;3.35;;;;;;;3.18;58.86;101227.09;5055344;28;20053;-68
2022/03/23 05:53:45;;;;;;;8.53;3.73;;;;;;;3.30;58.33;101208.44;5055319;28;20052;-66
2022/03/23 05:56:15;;;;;;;7.63;3.78;;;;;;;3.55;57.86;101215.63;5054660;28;20052;-66
2022/03/23 05:58:44;;;;;;;9.53;3.73;;;;;;;3.78;57.46;101209.22;5055519;28;20446;-67
2022/03/23 06:01:13;;;;;;;6.53;2.85;;;;;;;3.95;57.64;101214.34;5055240;28;20090;-66
2022/03/23 06:03:44;;;;;;;5.13;2.77;;;;;;;4.22;56.86;101213.97;5055209;28;20128;-67
2022/03/23 06:06:13;;;;;;;9.10;4.57;;;;;;;4.38;56.62;101216.47;5055007;28;20278;-67
2022/03/23 06:08:42;;;;;;;17.42;5.22;;;;;;;4.39;56.82;101218.22;5055037;28;20049;-67
2022/03/23 06:11:11;;;;;;;12.83;5.33;;;;;;;4.62;57.18;101217.63;5055007;28;20041;-67
2022/03/23 06:13:40;;;;;;;14.00;6.05;;;;;;;4.90;56.23;101210.53;5054820;28;20132;-67
2022/03/23 06:16:09;;;;;;;13.70;4.90;;;;;;;5.34;55.48;101215.97;5055732;28;20079;-67
2022/03/23 06:18:40;;;;;;;10.63;4.20;;;;;;;5.80;54.25;101207.84;5055135;28;20052;-67
2022/03/23 06:21:11;;;;;;;10.15;4.68;;;;;;;6.14;53.64;101213.56;5055080;28;20072;-67
2022/03/23 06:23:40;;;;;;;9.90;3.90;;;;;;;6.23;53.54;101216.47;5054989;28;20057;-67
2022/03/23 06:26:09;;;;;;;9.50;3.58;;;;;;;6.53;53.74;101212.63;5054638;28;20048;-67
2022/03/23 06:28:38;;;;;;;8.98;3.45;;;;;;;6.88;53.04;101216.56;5054693;28;20045;-67
2022/03/23 06:31:07;;;;;;;7.40;3.75;;;;;;;7.31;51.71;101219.94;5090955;28;20082;-67
2022/03/23 06:33:36;;;;;;;8.57;3.47;;;;;;;7.63;50.46;101204.97;5095397;28;20066;-67
2022/03/23 06:36:05;;;;;;;6.37;2.77;;;;;;;7.84;49.15;101209.13;5094705;28;20042;-67
2022/03/23 06:38:35;;;;;;;7.20;3.45;;;;;;;8.01;48.64;101213.09;5094595;28;20089;-67
2022/03/23 06:41:04;;;;;;;8.10;3.60;;;;;;;8.19;47.95;101212.00;5094831;28;20082;-67
2022/03/23 06:43:33;;;;;;;10.55;4.00;;;;;;;8.36;46.76;101218.53;5094508;28;20048;-66
2022/03/23 06:46:02;;;;;;;26.43;4.57;;;;;;;8.58;46.12;101226.06;5094599;28;20044;-67
2022/03/23 06:48:31;;;;;;;6.80;3.00;;;;;;;8.73;44.44;101218.91;5094526;28;20055;-67
2022/03/23 06:51:00;;;;;;;9.23;3.88;;;;;;;8.85;44.14;101214.19;5094706;28;20632;-67
2022/03/23 06:53:29;;;;;;;8.20;4.13;;;;;;;9.04;43.46;101216.50;5094330;28;20074;-67
2022/03/23 06:56:00;;;;;;;7.60;3.53;;;;;;;9.31;43.78;101216.41;5094599;28;20036;-67
2022/03/23 06:58:29;;;;;;;8.13;3.88;;;;;;;9.47;42.59;101212.63;5094543;28;20500;-67
2022/03/23 07:00:59;;;;;;;8.73;4.03;;;;;;;9.58;42.47;101209.56;5093246;28;20409;-67
2022/03/23 07:03:29;;;;;;;7.70;3.47;;;;;;;9.82;42.43;101211.91;5094759;28;20052;-67
2022/03/23 07:05:58;;;;;;;7.63;3.77;;;;;;;10.03;42.17;101208.22;5094140;28;20397;-67
2022/03/23 07:11:07;;;;;;;9.20;3.85;;;;;;;10.43;40.43;101212.69;5093356;28;20044;-67
2022/03/23 07:13:36;;;;;;;7.80;3.45;;;;;;;10.67;40.46;101217.53;5094354;28;20039;-67
2022/03/23 07:16:06;;;;;;;4.80;2.17;;;;;;;10.86;40.78;101213.69;5094312;28;20493;-67
2022/03/23 07:18:35;;;;;;;9.23;4.38;;;;;;;10.86;40.22;101209.44;5093911;28;20093;-67
2022/03/23 07:21:04;;;;;;;7.72;3.70;;;;;;;10.97;39.58;101215.66;5093942;28;20066;-67
2022/03/23 07:23:34;;;;;;;6.35;3.15;;;;;;;11.11;39.52;101213.44;5093902;28;20044;-68
2022/03/23 07:26:04;;;;;;;7.10;3.38;;;;;;;11.27;39.09;101215.47;5093934;28;20048;-68
2022/03/23 07:28:34;;;;;;;10.75;3.38;;;;;;;11.37;38.54;101213.13;5093402;28;20043;-67
2022/03/23 07:31:03;;;;;;;7.78;3.88;;;;;;;11.62;38.46;101209.38;5093628;28;20121;-68
2022/03/23 07:33:32;;;;;;;5.65;2.47;;;;;;;11.82;38.35;101202.09;5093780;28;20041;-67
2022/03/23 07:36:02;;;;;;;6.53;3.90;;;;;;;11.96;38.13;101205.78;5093422;28;20044;-67
2022/03/23 07:38:31;;;;;;;7.28;3.00;;;;;;;12.23;37.83;101201.16;5093351;28;20047;-68
2022/03/23 07:41:00;;;;;;;4.33;2.57;;;;;;;12.29;37.75;101205.50;5093612;28;20044;-67
2022/03/23 07:43:28;;;;;;;6.43;3.00;;;;;;;12.55;37.20;101199.97;5094014;28;20424;-68
2022/03/23 07:45:59;;;;;;;6.60;3.30;;;;;;;12.74;36.87;101196.00;5093968;28;20044;-68
2022/03/23 07:48:28;;;;;;;8.27;4.07;;;;;;;12.84;36.43;101197.84;5093941;28;20048;-68
2022/03/23 07:50:57;;;;;;;9.57;4.40;;;;;;;13.13;36.23;101195.69;5093475;28;20040;-68
2022/03/23 07:53:31;;;;;;;6.63;3.45;;;;;;;13.28;36.04;101195.91;5093964;28;20052;-68
2022/03/23 07:56:00;;;;;;;8.82;3.55;;;;;;;13.38;35.80;101196.06;5093552;28;20409;-67
2022/03/23 07:58:30;;;;;;;7.30;3.60;;;;;;;13.51;35.72;101191.06;5093446;28;20074;-68
2022/03/23 08:01:01;;;;;;;7.85;3.85;;;;;;;13.66;35.21;101188.66;5093449;28;20044;-67
2022/03/23 08:03:30;;;;;;;9.52;4.00;;;;;;;13.57;34.93;101193.69;5093459;28;20044;-67
2022/03/23 08:05:59;;;;;;;7.25;3.78;;;;;;;13.89;35.30;101194.91;5093847;28;20469;-67
2022/03/23 08:08:28;;;;;;;9.63;3.80;;;;;;;14.04;34.42;101192.47;5093817;28;20450;-67
2022/03/23 08:10:58;;;;;;;;;;;;;;;14.24;33.85;101193.53;5093780;28;20089;-68
2022/03/23 08:13:27;;;;;;;7.35;3.85;;;;;;;14.38;33.58;101197.09;5093616;28;19927;-68
2022/03/23 08:15:56;;;;;;;5.93;2.83;;;;;;;14.31;33.48;101186.75;5093535;28;20059;-67
2022/03/23 08:18:27;;;;;;;7.35;3.92;;;;;;;14.57;33.86;101190.38;5094992;28;20052;-67
2022/03/23 08:20:56;;;;;;;11.10;4.18;;;;;;;15.06;34.68;101184.72;5097447;28;20474;-68
2022/03/23 08:23:26;;;;;;;5.10;2.77;;;;;;;15.46;34.75;101184.91;5097591;28;20043;-68
2022/03/23 08:25:55;;;;;;;7.43;4.00;;;;;;;15.22;33.04;101183.94;5097600;28;20036;-68
2022/03/23 08:28:24;;;;;;;7.70;3.40;;;;;;;15.07;32.58;101183.00;5097430;28;20416;-67
2022/03/23 08:30:53;;;;;;;7.78;3.90;;;;;;;15.32;32.91;101174.53;5097252;28;20459;-68
2022/03/23 08:33:25;;;;;;;4.47;2.55;;;;;;;15.56;31.65;101174.66;5097119;28;20040;-67
2022/03/23 08:35:55;;;;;;;10.20;4.65;;;;;;;15.64;30.73;101175.56;5097162;28;20044;-68
2022/03/23 08:38:24;;;;;;;8.35;3.78;;;;;;;15.74;30.76;101179.84;5096998;28;20048;-67
2022/03/23 08:40:54;;;;;;;8.13;3.72;;;;;;;16.07;31.30;101184.22;5097086;28;20097;-67
2022/03/23 08:43:23;;;;;;;7.97;3.67;;;;;;;16.43;31.14;101181.66;5096857;28;20084;-68
2022/03/23 08:45:51;;;;;;;7.10;3.37;;;;;;;16.59;29.78;101174.78;5097111;28;20530;-67
2022/03/23 08:48:21;;;;;;;6.10;3.20;;;;;;;16.49;29.22;101173.91;5096807;28;20093;-68
2022/03/23 08:50:51;;;;;;;6.57;3.38;;;;;;;16.72;29.46;101166.19;5096807;28;20048;-68
2022/03/23 08:53:23;;;;;;;7.50;3.30;;;;;;;16.91;29.09;101169.56;5097055;28;20095;-68
2022/03/23 08:55:52;;;;;;;6.43;3.97;;;;;;;16.89;29.22;101163.56;5096660;28;20052;-67
2022/03/23 08:58:21;;;;;;;5.07;2.87;;;;;;;16.90;29.05;101163.53;5096667;28;20043;-68
2022/03/23 09:00:50;;;;;;;4.90;2.78;;;;;;;17.59;30.55;101164.19;5096551;28;20044;-68
2022/03/23 09:03:19;;;;;;;8.38;3.83;;;;;;;17.54;29.45;101158.16;5096804;28;20072;-68
2022/03/23 09:05:48;;;;;;;8.77;3.95;;;;;;;17.84;29.88;101161.44;5096653;28;20040;-68
2022/03/23 09:08:17;;;;;;;6.43;3.80;;;;;;;18.14;28.92;101160.31;5096565;28;20032;-67
2022/03/23 09:10:47;;;;;;;6.80;3.20;;;;;;;17.77;27.74;101161.47;5096436;28;20490;-68
2022/03/23 09:13:16;;;;;;;7.38;3.60;;;;;;;17.60;27.72;101152.97;5096731;28;20083;-67
2022/03/23 09:15:45;;;;;;;8.83;3.60;;;;;;;17.93;27.91;101160.50;5096100;28;20478;-68
2022/03/23 09:18:14;;;;;;;7.30;3.77;;;;;;;18.06;27.68;101157.81;5096239;28;20044;-68
2022/03/23 09:20:43;;;;;;;7.00;4.00;;;;;;;17.90;26.93;101150.19;5096159;28;20036;-68
2022/03/23 09:23:12;;;;;;;8.23;3.70;;;;;;;18.13;27.03;101144.84;5096412;28;20044;-68
2022/03/23 09:25:41;;;;;;;7.97;4.23;;;;;;;18.15;27.20;101145.69;5096055;28;20079;-68
2022/03/23 09:28:11;;;;;;;6.90;3.35;;;;;;;18.42;27.08;101141.16;5096194;28;20280;-68
2022/03/23 09:30:40;;;;;;;7.47;4.10;;;;;;;18.54;26.17;101135.91;5094838;28;20063;-68
2022/03/23 09:33:09;;;;;;;7.28;3.25;;;;;;;18.65;26.31;101136.63;5096047;28;20040;-68
2022/03/23 09:35:38;;;;;;;5.50;3.43;;;;;;;18.97;27.35;101130.25;5096194;28;20036;-68
2022/03/23 09:38:06;;;;;;;6.80;3.47;;;;;;;19.14;25.70;101124.00;5095889;28;20277;-68
2022/03/23 09:40:35;;;;;;;7.22;3.72;;;;;;;19.76;27.67;101136.13;5095633;28;20131;-68
2022/03/23 09:43:09;;;;;;;7.07;3.67;;;;;;;20.06;26.42;101125.25;5095788;28;20048;-68
2022/03/23 09:45:47;;;;;;;7.15;3.38;;;;;;;19.88;25.73;101130.75;5095850;28;20055;-68
2022/03/23 09:48:20;;;;;;;8.27;4.00;;;;;;;19.80;24.46;101122.22;5095680;28;20043;-68
2022/03/23 09:50:52;;;;;;;6.03;3.63;;;;;;;20.22;24.60;101119.81;5096298;28;20044;-68
2022/03/23 09:53:25;;;;;;;12.60;4.40;;;;;;;20.36;24.50;101112.69;5096203;28;20060;-68
2022/03/23 09:55:54;;;;;;;7.53;3.67;;;;;;;20.58;25.15;101114.00;5096319;28;20067;-68
2022/03/23 09:58:24;;;;;;;6.32;3.55;;;;;;;20.87;25.30;101111.72;5095556;28;20563;-68
2022/03/23 10:00:56;;;;;;;6.53;3.90;;;;;;;20.67;24.68;101104.31;5095467;28;20043;-68
2022/03/23 10:04:05;;;;;;;6.75;4.10;;;;;;;20.23;23.57;101111.22;5095436;28;20047;-67
2022/03/23 10:06:58;;;;;;;6.68;3.70;;;;;;;20.03;23.77;101109.75;5095303;28;20177;-67
2022/03/23 10:09:48;;;;;;;8.35;4.05;;;;;;;20.31;24.92;101098.94;5095894;28;20134;-68
2022/03/23 10:12:45;;;;;;;7.13;3.88;;;;;;;20.72;24.50;101099.03;5095523;28;20139;-68
2022/03/23 10:15:35;;;;;;;8.88;4.18;;;;;;;20.67;24.76;101093.06;5095422;28;20063;-68
2022/03/23 10:18:30;;;;;;;7.22;3.80;;;;;;;20.62;24.51;101090.56;5093964;28;20498;-67
2022/03/23 10:21:02;;;;;;;6.35;3.85;;;;;;;21.18;25.12;101094.66;5085385;28;20070;-68
2022/03/23 10:23:31;;;;;;;7.97;4.13;;;;;;;21.08;23.41;101081.88;5095142;28;20051;-68
2022/03/23 10:26:11;;;;;;;6.70;3.70;;;;;;;21.21;22.94;101086.78;5094862;28;20063;-68
2022/03/23 10:28:41;;;;;;;7.07;3.72;;;;;;;21.46;23.63;101075.84;5095264;28;20052;-68
2022/03/23 10:31:17;;;;;;;6.55;3.47;;;;;;;21.58;22.78;101060.81;5094852;28;20069;-68
2022/03/23 10:33:57;;;;;;;6.50;3.58;;;;;;;21.38;22.61;101076.88;5094858;28;20119;-68
2022/03/23 10:36:28;;;;;;;6.35;3.80;;;;;;;21.41;22.13;101077.69;5094863;28;20048;-68
2022/03/23 10:39:00;;;;;;;7.30;3.80;;;;;;;21.50;21.79;101070.53;5095182;28;20402;-67
2022/03/23 10:41:30;;;;;;;6.53;3.60;;;;;;;21.51;21.82;101068.78;5094503;28;20055;-67
2022/03/23 10:44:00;;;;;;;6.85;3.47;;;;;;;21.46;22.29;101068.03;5094855;28;20075;-67
2022/03/23 10:46:29;;;;;;;;;;;;;;;21.60;21.19;101058.19;5094909;28;20565;-67
2022/03/23 10:49:02;;;;;;;6.80;3.78;;;;;;;21.04;21.58;101052.50;5094615;28;20016;-68
2022/03/23 10:51:34;;;;;;;8.95;3.83;;;;;;;21.19;21.56;101052.19;5095011;28;20424;-67
2022/03/23 10:54:15;;;;;;;7.50;3.63;;;;;;;21.66;22.91;101051.13;5094787;28;20052;-67
2022/03/23 10:56:44;;;;;;;7.10;3.72;;;;;;;21.90;22.65;101057.47;5094316;28;20060;-67
2022/03/23 10:59:25;;;;;;;7.68;4.15;;;;;;;22.05;21.99;101046.69;5094280;28;20032;-68
2022/03/23 11:02:02;;;;;;;6.85;3.75;;;;;;;21.55;23.83;101047.91;5094321;28;20454;-67
2022/03/23 11:04:33;;;;;;;6.40;3.92;;;;;;;21.83;23.25;101040.31;5094144;28;20089;-67
2022/03/23 11:07:04;;;;;;;6.43;3.67;;;;;;;21.76;22.46;101043.94;5094201;28;20097;-68
2022/03/23 11:17:47;;;;;;;6.20;4.00;;;;;;;22.53;22.69;101029.75;5089790;28;20093;-68
2022/03/23 11:20:17;;;;;;;8.15;3.97;;;;;;;22.51;23.04;101015.06;5093993;28;20044;-68
2022/03/23 11:22:47;;;;;;;12.73;4.65;;;;;;;22.86;22.41;101027.13;5093786;28;20044;-68
2022/03/23 11:25:16;;;;;;;6.32;3.90;;;;;;;22.96;22.75;101020.75;5093967;28;20054;-67
2022/03/23 11:27:46;;;;;;;8.43;4.67;;;;;;;23.03;22.55;101014.44;5093840;28;20047;-67
2022/03/23 11:30:15;;;;;;;6.50;3.92;;;;;;;22.87;21.84;101007.97;5093909;28;20351;-68
2022/03/23 11:32:44;;;;;;;6.82;4.00;;;;;;;22.75;21.49;101005.75;5093643;28;20083;-67
2022/03/23 11:35:14;;;;;;;7.50;3.88;;;;;;;22.99;21.71;100991.97;5094160;28;20070;-67
2022/03/23 11:37:45;;;;;;;8.85;4.07;;;;;;;22.53;20.69;100993.31;5094070;28;20044;-68
2022/03/23 11:40:16;;;;;;;7.95;4.65;;;;;;;22.94;21.99;100993.91;5094040;28;20076;-68
2022/03/23 11:42:46;;;;;;;6.82;3.65;;;;;;;23.00;21.55;100985.88;5093986;28;20397;-67
2022/03/23 11:45:15;;;;;;;8.50;3.85;;;;;;;23.22;21.29;100984.31;5094041;28;20382;-68
2022/03/23 11:47:54;;;;;;;6.00;3.60;;;;;;;23.44;21.21;100980.16;5093652;28;20075;-68
2022/03/23 11:50:30;;;;;;;6.50;3.60;;;;;;;23.25;21.04;100979.84;5094587;28;20425;-68
2022/03/23 11:53:05;;;;;;;8.77;3.70;;;;;;;23.50;21.04;100963.44;5093658;28;20375;-68
2022/03/23 11:55:41;;;;;;;8.60;4.50;;;;;;;23.16;19.99;100968.84;5093560;28;20048;-68
2022/03/23 11:58:16;;;;;;;9.55;3.83;;;;;;;23.11;19.99;100962.94;5093651;28;20059;-68
2022/03/23 12:00:50;;;;;;;6.70;3.92;;;;;;;23.57;20.56;100950.16;5092309;28;20078;-68